sensor_id;sensor_type;location;lat;lon;timestamp;P1;durP1;ratioP1;P2;durP2;ratioP2
20649;SDS011;10484;48.736;9.332;2023-09-18T00:02:20;2.77;;;2.57;;
20649;SDS011;10484;48.736;9.332;2023-09-18T00:04:45;3.03;;;2.60;;
20649;SDS011;10484;48.736;9.332;2023-09-18T00:07:11;2.97;;;2.77;;
20649;SDS011;10484;48.736;9.332;2023-09-18T00:09:37;2.90;;;2.47;;
20649;SDS011;10484;48.736;9.332;2023-09-18T00:12:02;2.90;;;2.70;;
20649;SDS011;10484;48.736;9.332;2023-09-18T00:14:28;2.80;;;2.60;;
20649;SDS011;10484;48.736;9.332;2023-09-18T00:16:54;2.80;;;2.60;;
20649;SDS011;10484;48.736;9.332;2023-09-18T00:19:22;2.87;;;2.67;;
20649;SDS011;10484;48.736;9.332;2023-09-18T00:21:48;3.13;;;2.83;;
20649;SDS011;10484;48.736;9.332;2023-09-18T00:24:14;3.40;;;3.10;;
20649;SDS011;10484;48.736;9.332;2023-09-18T00:26:39;2.77;;;2.57;;
20649;SDS011;10484;48.736;9.332;2023-09-18T00:29:05;2.90;;;2.70;;
20649;SDS011;10484;48.736;9.332;2023-09-18T00:31:30;2.67;;;2.47;;
20649;SDS011;10484;48.736;9.332;2023-09-18T00:33:56;3.70;;;2.80;;
20649;SDS011;10484;48.736;9.332;2023-09-18T00:36:21;3.10;;;2.90;;
20649;SDS011;10484;48.736;9.332;2023-09-18T00:38:47;2.60;;;2.40;;
20649;SDS011;10484;48.736;9.332;2023-09-18T00:41:13;2.60;;;2.40;;
20649;SDS011;10484;48.736;9.332;2023-09-18T00:43:38;3.13;;;2.83;;
20649;SDS011;10484;48.736;9.332;2023-09-18T00:46:04;4.27;;;2.73;;
20649;SDS011;10484;48.736;9.332;2023-09-18T00:48:30;3.00;;;2.80;;
20649;SDS011;10484;48.736;9.332;2023-09-18T00:50:56;2.83;;;2.53;;
20649;SDS011;10484;48.736;9.332;2023-09-18T00:53:22;5.90;;;3.90;;
20649;SDS011;10484;48.736;9.332;2023-09-18T00:55:50;4.50;;;3.20;;
20649;SDS011;10484;48.736;9.332;2023-09-18T00:58:20;2.67;;;2.47;;
20649;SDS011;10484;48.736;9.332;2023-09-18T01:00:46;3.17;;;2.87;;
20649;SDS011;10484;48.736;9.332;2023-09-18T01:03:14;3.10;;;2.77;;
20649;SDS011;10484;48.736;9.332;2023-09-18T01:05:42;2.70;;;2.50;;
20649;SDS011;10484;48.736;9.332;2023-09-18T01:08:08;2.63;;;2.43;;
20649;SDS011;10484;48.736;9.332;2023-09-18T01:10:34;2.80;;;2.60;;
20649;SDS011;10484;48.736;9.332;2023-09-18T01:13:13;3.20;;;2.73;;
20649;SDS011;10484;48.736;9.332;2023-09-18T01:15:47;2.73;;;2.53;;
20649;SDS011;10484;48.736;9.332;2023-09-18T01:18:17;3.17;;;2.97;;
20649;SDS011;10484;48.736;9.332;2023-09-18T01:20:43;2.93;;;2.73;;
20649;SDS011;10484;48.736;9.332;2023-09-18T01:23:09;2.70;;;2.50;;
20649;SDS011;10484;48.736;9.332;2023-09-18T01:25:36;2.47;;;2.27;;
20649;SDS011;10484;48.736;9.332;2023-09-18T01:28:02;3.23;;;2.93;;
20649;SDS011;10484;48.736;9.332;2023-09-18T01:30:28;2.90;;;2.60;;
20649;SDS011;10484;48.736;9.332;2023-09-18T01:32:54;2.93;;;2.73;;
20649;SDS011;10484;48.736;9.332;2023-09-18T01:35:23;2.53;;;2.33;;
20649;SDS011;10484;48.736;9.332;2023-09-18T01:37:55;3.00;;;2.73;;
20649;SDS011;10484;48.736;9.332;2023-09-18T01:40:21;4.03;;;2.80;;
20649;SDS011;10484;48.736;9.332;2023-09-18T01:42:48;3.00;;;2.80;;
20649;SDS011;10484;48.736;9.332;2023-09-18T01:45:14;3.30;;;3.00;;
20649;SDS011;10484;48.736;9.332;2023-09-18T01:47:39;2.90;;;2.70;;
20649;SDS011;10484;48.736;9.332;2023-09-18T01:50:05;2.80;;;2.60;;
20649;SDS011;10484;48.736;9.332;2023-09-18T01:52:31;2.70;;;2.50;;
20649;SDS011;10484;48.736;9.332;2023-09-18T01:54:56;2.33;;;2.13;;
20649;SDS011;10484;48.736;9.332;2023-09-18T01:57:22;2.93;;;2.73;;
20649;SDS011;10484;48.736;9.332;2023-09-18T01:59:48;2.73;;;2.47;;
20649;SDS011;10484;48.736;9.332;2023-09-18T02:02:13;3.67;;;3.17;;
20649;SDS011;10484;48.736;9.332;2023-09-18T02:04:40;4.07;;;2.80;;
20649;SDS011;10484;48.736;9.332;2023-09-18T02:07:06;4.13;;;2.97;;
20649;SDS011;10484;48.736;9.332;2023-09-18T02:09:32;6.00;;;2.80;;
20649;SDS011;10484;48.736;9.332;2023-09-18T02:11:58;4.53;;;3.67;;
20649;SDS011;10484;48.736;9.332;2023-09-18T02:14:23;2.90;;;2.70;;
20649;SDS011;10484;48.736;9.332;2023-09-18T02:16:49;3.90;;;3.43;;
20649;SDS011;10484;48.736;9.332;2023-09-18T02:19:15;5.20;;;3.27;;
20649;SDS011;10484;48.736;9.332;2023-09-18T02:21:45;4.30;;;2.90;;
20649;SDS011;10484;48.736;9.332;2023-09-18T02:24:10;6.80;;;3.70;;
20649;SDS011;10484;48.736;9.332;2023-09-18T02:26:36;4.53;;;2.90;;
20649;SDS011;10484;48.736;9.332;2023-09-18T02:29:06;3.63;;;3.30;;
20649;SDS011;10484;48.736;9.332;2023-09-18T02:31:36;3.43;;;2.70;;
20649;SDS011;10484;48.736;9.332;2023-09-18T02:34:01;3.07;;;2.87;;
20649;SDS011;10484;48.736;9.332;2023-09-18T02:36:27;3.80;;;3.50;;
20649;SDS011;10484;48.736;9.332;2023-09-18T02:38:53;4.10;;;3.20;;
20649;SDS011;10484;48.736;9.332;2023-09-18T02:41:18;3.43;;;3.10;;
20649;SDS011;10484;48.736;9.332;2023-09-18T02:43:44;3.87;;;3.47;;
20649;SDS011;10484;48.736;9.332;2023-09-18T02:46:09;3.43;;;3.13;;
20649;SDS011;10484;48.736;9.332;2023-09-18T02:48:35;5.50;;;3.73;;
20649;SDS011;10484;48.736;9.332;2023-09-18T02:51:01;4.83;;;3.23;;
20649;SDS011;10484;48.736;9.332;2023-09-18T02:53:27;5.47;;;3.23;;
20649;SDS011;10484;48.736;9.332;2023-09-18T02:55:54;3.30;;;3.00;;
20649;SDS011;10484;48.736;9.332;2023-09-18T02:58:20;4.33;;;2.97;;
20649;SDS011;10484;48.736;9.332;2023-09-18T03:00:48;3.53;;;3.23;;
20649;SDS011;10484;48.736;9.332;2023-09-18T03:03:15;3.00;;;2.70;;
20649;SDS011;10484;48.736;9.332;2023-09-18T03:05:41;3.80;;;3.50;;
20649;SDS011;10484;48.736;9.332;2023-09-18T03:08:08;3.00;;;2.80;;
20649;SDS011;10484;48.736;9.332;2023-09-18T03:10:35;5.30;;;3.30;;
20649;SDS011;10484;48.736;9.332;2023-09-18T03:13:01;2.73;;;2.53;;
20649;SDS011;10484;48.736;9.332;2023-09-18T03:15:28;4.27;;;3.63;;
20649;SDS011;10484;48.736;9.332;2023-09-18T03:17:54;3.83;;;3.10;;
20649;SDS011;10484;48.736;9.332;2023-09-18T03:20:23;3.50;;;3.20;;
20649;SDS011;10484;48.736;9.332;2023-09-18T03:22:54;3.33;;;3.03;;
20649;SDS011;10484;48.736;9.332;2023-09-18T03:25:21;4.53;;;2.80;;
20649;SDS011;10484;48.736;9.332;2023-09-18T03:27:47;3.97;;;3.07;;
20649;SDS011;10484;48.736;9.332;2023-09-18T03:30:13;3.40;;;2.73;;
20649;SDS011;10484;48.736;9.332;2023-09-18T03:32:41;3.50;;;2.97;;
20649;SDS011;10484;48.736;9.332;2023-09-18T03:35:07;2.90;;;2.70;;
20649;SDS011;10484;48.736;9.332;2023-09-18T03:37:40;3.67;;;2.73;;
20649;SDS011;10484;48.736;9.332;2023-09-18T03:40:06;4.27;;;2.93;;
20649;SDS011;10484;48.736;9.332;2023-09-18T03:42:33;2.80;;;2.60;;
20649;SDS011;10484;48.736;9.332;2023-09-18T03:44:59;4.57;;;3.30;;
20649;SDS011;10484;48.736;9.332;2023-09-18T03:47:24;4.50;;;3.10;;
20649;SDS011;10484;48.736;9.332;2023-09-18T03:49:50;3.40;;;3.10;;
20649;SDS011;10484;48.736;9.332;2023-09-18T03:52:16;3.67;;;3.10;;
20649;SDS011;10484;48.736;9.332;2023-09-18T03:54:41;3.90;;;3.20;;
20649;SDS011;10484;48.736;9.332;2023-09-18T03:57:07;3.13;;;2.57;;
20649;SDS011;10484;48.736;9.332;2023-09-18T03:59:33;3.17;;;2.53;;
20649;SDS011;10484;48.736;9.332;2023-09-18T04:01:58;4.53;;;2.87;;
20649;SDS011;10484;48.736;9.332;2023-09-18T04:04:24;3.33;;;3.03;;
20649;SDS011;10484;48.736;9.332;2023-09-18T04:06:49;3.37;;;2.77;;
20649;SDS011;10484;48.736;9.332;2023-09-18T04:09:15;6.37;;;3.27;;
20649;SDS011;10484;48.736;9.332;2023-09-18T04:11:40;3.60;;;3.20;;
20649;SDS011;10484;48.736;9.332;2023-09-18T04:14:06;3.70;;;3.40;;
20649;SDS011;10484;48.736;9.332;2023-09-18T04:16:32;3.03;;;2.83;;
20649;SDS011;10484;48.736;9.332;2023-09-18T04:19:00;4.60;;;3.17;;
20649;SDS011;10484;48.736;9.332;2023-09-18T04:21:26;3.53;;;2.87;;
20649;SDS011;10484;48.736;9.332;2023-09-18T04:23:52;3.30;;;3.00;;
20649;SDS011;10484;48.736;9.332;2023-09-18T04:26:22;5.13;;;3.50;;
20649;SDS011;10484;48.736;9.332;2023-09-18T04:28:48;5.57;;;2.83;;
20649;SDS011;10484;48.736;9.332;2023-09-18T04:31:14;3.20;;;2.70;;
20649;SDS011;10484;48.736;9.332;2023-09-18T04:33:41;4.23;;;3.20;;
20649;SDS011;10484;48.736;9.332;2023-09-18T04:36:06;3.87;;;3.23;;
20649;SDS011;10484;48.736;9.332;2023-09-18T04:38:33;4.00;;;2.90;;
20649;SDS011;10484;48.736;9.332;2023-09-18T04:41:01;2.70;;;2.50;;
20649;SDS011;10484;48.736;9.332;2023-09-18T04:43:27;3.40;;;2.80;;
20649;SDS011;10484;48.736;9.332;2023-09-18T04:45:54;3.20;;;2.90;;
20649;SDS011;10484;48.736;9.332;2023-09-18T04:48:20;3.50;;;3.20;;
20649;SDS011;10484;48.736;9.332;2023-09-18T04:50:45;4.40;;;2.97;;
20649;SDS011;10484;48.736;9.332;2023-09-18T04:53:12;3.87;;;3.23;;
20649;SDS011;10484;48.736;9.332;2023-09-18T04:55:38;2.80;;;2.50;;
20649;SDS011;10484;48.736;9.332;2023-09-18T04:58:04;3.03;;;2.73;;
20649;SDS011;10484;48.736;9.332;2023-09-18T05:00:30;3.70;;;3.40;;
20649;SDS011;10484;48.736;9.332;2023-09-18T05:02:57;3.03;;;2.77;;
20649;SDS011;10484;48.736;9.332;2023-09-18T05:05:26;3.40;;;3.10;;
20649;SDS011;10484;48.736;9.332;2023-09-18T05:07:52;3.63;;;3.20;;
20649;SDS011;10484;48.736;9.332;2023-09-18T05:10:17;3.43;;;3.03;;
20649;SDS011;10484;48.736;9.332;2023-09-18T05:12:43;5.00;;;3.27;;
20649;SDS011;10484;48.736;9.332;2023-09-18T05:15:09;4.63;;;3.30;;
20649;SDS011;10484;48.736;9.332;2023-09-18T05:17:42;4.90;;;3.33;;
20649;SDS011;10484;48.736;9.332;2023-09-18T05:20:11;3.30;;;3.00;;
20649;SDS011;10484;48.736;9.332;2023-09-18T05:22:41;3.90;;;2.73;;
20649;SDS011;10484;48.736;9.332;2023-09-18T05:25:08;2.70;;;2.47;;
20649;SDS011;10484;48.736;9.332;2023-09-18T05:27:35;2.97;;;2.67;;
20649;SDS011;10484;48.736;9.332;2023-09-18T05:30:09;3.80;;;2.93;;
20649;SDS011;10484;48.736;9.332;2023-09-18T05:32:45;3.07;;;2.77;;
20649;SDS011;10484;48.736;9.332;2023-09-18T05:35:13;2.97;;;2.67;;
20649;SDS011;10484;48.736;9.332;2023-09-18T05:37:39;3.47;;;3.17;;
20649;SDS011;10484;48.736;9.332;2023-09-18T05:40:09;3.37;;;2.97;;
20649;SDS011;10484;48.736;9.332;2023-09-18T05:42:35;3.00;;;2.67;;
20649;SDS011;10484;48.736;9.332;2023-09-18T05:45:02;3.00;;;2.63;;
20649;SDS011;10484;48.736;9.332;2023-09-18T05:47:29;4.20;;;2.70;;
20649;SDS011;10484;48.736;9.332;2023-09-18T05:49:57;4.80;;;3.50;;
20649;SDS011;10484;48.736;9.332;2023-09-18T05:52:22;3.20;;;2.90;;
20649;SDS011;10484;48.736;9.332;2023-09-18T05:54:48;3.93;;;2.67;;
20649;SDS011;10484;48.736;9.332;2023-09-18T05:57:14;3.70;;;2.70;;
20649;SDS011;10484;48.736;9.332;2023-09-18T05:59:41;4.20;;;2.87;;
20649;SDS011;10484;48.736;9.332;2023-09-18T06:02:08;2.73;;;2.50;;
20649;SDS011;10484;48.736;9.332;2023-09-18T06:04:34;4.37;;;2.93;;
20649;SDS011;10484;48.736;9.332;2023-09-18T06:07:02;6.33;;;3.03;;
20649;SDS011;10484;48.736;9.332;2023-09-18T06:09:28;3.53;;;2.93;;
20649;SDS011;10484;48.736;9.332;2023-09-18T06:11:54;3.13;;;2.83;;
20649;SDS011;10484;48.736;9.332;2023-09-18T06:14:19;3.03;;;2.60;;
20649;SDS011;10484;48.736;9.332;2023-09-18T06:16:45;3.77;;;3.07;;
20649;SDS011;10484;48.736;9.332;2023-09-18T06:19:10;6.27;;;3.10;;
20649;SDS011;10484;48.736;9.332;2023-09-18T06:21:36;3.23;;;2.80;;
20649;SDS011;10484;48.736;9.332;2023-09-18T06:24:01;2.97;;;2.70;;
20649;SDS011;10484;48.736;9.332;2023-09-18T06:26:27;2.90;;;2.70;;
20649;SDS011;10484;48.736;9.332;2023-09-18T06:28:53;3.30;;;2.47;;
20649;SDS011;10484;48.736;9.332;2023-09-18T06:31:20;2.80;;;2.43;;
20649;SDS011;10484;48.736;9.332;2023-09-18T06:33:45;4.00;;;3.03;;
20649;SDS011;10484;48.736;9.332;2023-09-18T06:36:11;3.30;;;2.97;;
20649;SDS011;10484;48.736;9.332;2023-09-18T06:38:38;2.50;;;2.30;;
20649;SDS011;10484;48.736;9.332;2023-09-18T06:41:03;4.13;;;2.63;;
20649;SDS011;10484;48.736;9.332;2023-09-18T06:43:29;2.90;;;2.63;;
20649;SDS011;10484;48.736;9.332;2023-09-18T06:45:55;3.83;;;3.10;;
20649;SDS011;10484;48.736;9.332;2023-09-18T06:48:22;3.70;;;3.40;;
20649;SDS011;10484;48.736;9.332;2023-09-18T06:50:48;3.53;;;3.13;;
20649;SDS011;10484;48.736;9.332;2023-09-18T06:53:14;3.47;;;3.17;;
20649;SDS011;10484;48.736;9.332;2023-09-18T06:55:40;2.97;;;2.70;;
20649;SDS011;10484;48.736;9.332;2023-09-18T06:58:05;4.60;;;3.13;;
20649;SDS011;10484;48.736;9.332;2023-09-18T07:00:31;3.73;;;3.07;;
20649;SDS011;10484;48.736;9.332;2023-09-18T07:02:56;3.37;;;2.83;;
20649;SDS011;10484;48.736;9.332;2023-09-18T07:05:22;2.70;;;2.50;;
20649;SDS011;10484;48.736;9.332;2023-09-18T07:07:48;6.40;;;2.90;;
20649;SDS011;10484;48.736;9.332;2023-09-18T07:10:13;3.37;;;2.90;;
20649;SDS011;10484;48.736;9.332;2023-09-18T07:12:39;3.03;;;2.20;;
20649;SDS011;10484;48.736;9.332;2023-09-18T07:15:05;4.90;;;3.40;;
20649;SDS011;10484;48.736;9.332;2023-09-18T07:17:31;3.63;;;2.63;;
20649;SDS011;10484;48.736;9.332;2023-09-18T07:19:57;4.00;;;2.70;;
20649;SDS011;10484;48.736;9.332;2023-09-18T07:22:24;5.10;;;2.47;;
20649;SDS011;10484;48.736;9.332;2023-09-18T07:24:50;3.93;;;3.10;;
20649;SDS011;10484;48.736;9.332;2023-09-18T07:27:15;4.63;;;3.30;;
20649;SDS011;10484;48.736;9.332;2023-09-18T07:29:41;4.70;;;2.90;;
20649;SDS011;10484;48.736;9.332;2023-09-18T07:32:06;3.90;;;2.67;;
20649;SDS011;10484;48.736;9.332;2023-09-18T07:34:34;3.20;;;2.90;;
20649;SDS011;10484;48.736;9.332;2023-09-18T07:37:00;4.10;;;3.20;;
20649;SDS011;10484;48.736;9.332;2023-09-18T07:39:25;3.03;;;2.43;;
20649;SDS011;10484;48.736;9.332;2023-09-18T07:41:51;4.40;;;2.73;;
20649;SDS011;10484;48.736;9.332;2023-09-18T07:44:20;4.47;;;2.77;;
20649;SDS011;10484;48.736;9.332;2023-09-18T07:46:46;5.37;;;3.10;;
20649;SDS011;10484;48.736;9.332;2023-09-18T07:49:12;3.50;;;2.30;;
20649;SDS011;10484;48.736;9.332;2023-09-18T07:51:39;3.10;;;2.53;;
20649;SDS011;10484;48.736;9.332;2023-09-18T07:54:06;4.17;;;2.23;;
20649;SDS011;10484;48.736;9.332;2023-09-18T07:56:32;2.67;;;2.30;;
20649;SDS011;10484;48.736;9.332;2023-09-18T07:58:59;3.97;;;2.40;;
20649;SDS011;10484;48.736;9.332;2023-09-18T08:01:25;5.43;;;2.63;;
20649;SDS011;10484;48.736;9.332;2023-09-18T08:03:50;2.50;;;1.97;;
20649;SDS011;10484;48.736;9.332;2023-09-18T08:06:16;5.60;;;2.47;;
20649;SDS011;10484;48.736;9.332;2023-09-18T08:08:44;3.17;;;1.97;;
20649;SDS011;10484;48.736;9.332;2023-09-18T08:11:10;3.90;;;1.90;;
20649;SDS011;10484;48.736;9.332;2023-09-18T08:13:36;4.20;;;1.83;;
20649;SDS011;10484;48.736;9.332;2023-09-18T08:16:02;3.10;;;1.47;;
20649;SDS011;10484;48.736;9.332;2023-09-18T08:18:31;3.00;;;2.00;;
20649;SDS011;10484;48.736;9.332;2023-09-18T08:20:56;2.30;;;1.40;;
20649;SDS011;10484;48.736;9.332;2023-09-18T08:23:23;2.93;;;1.47;;
20649;SDS011;10484;48.736;9.332;2023-09-18T08:25:49;3.00;;;1.70;;
20649;SDS011;10484;48.736;9.332;2023-09-18T08:28:16;4.67;;;1.97;;
20649;SDS011;10484;48.736;9.332;2023-09-18T08:30:42;4.40;;;1.70;;
20649;SDS011;10484;48.736;9.332;2023-09-18T08:33:12;3.97;;;1.70;;
20649;SDS011;10484;48.736;9.332;2023-09-18T08:35:38;3.23;;;1.33;;
20649;SDS011;10484;48.736;9.332;2023-09-18T08:38:04;2.17;;;1.47;;
20649;SDS011;10484;48.736;9.332;2023-09-18T08:40:30;3.40;;;1.70;;
20649;SDS011;10484;48.736;9.332;2023-09-18T08:42:56;4.70;;;1.53;;
20649;SDS011;10484;48.736;9.332;2023-09-18T08:45:43;2.03;;;1.30;;
20649;SDS011;10484;48.736;9.332;2023-09-18T08:48:12;2.50;;;1.40;;
20649;SDS011;10484;48.736;9.332;2023-09-18T08:50:38;1.90;;;1.47;;
20649;SDS011;10484;48.736;9.332;2023-09-18T08:53:05;3.17;;;1.37;;
20649;SDS011;10484;48.736;9.332;2023-09-18T08:55:31;1.40;;;1.30;;
20649;SDS011;10484;48.736;9.332;2023-09-18T08:57:58;2.50;;;1.40;;
20649;SDS011;10484;48.736;9.332;2023-09-18T09:00:25;2.33;;;1.60;;
20649;SDS011;10484;48.736;9.332;2023-09-18T09:02:51;1.70;;;1.07;;
20649;SDS011;10484;48.736;9.332;2023-09-18T09:05:19;2.63;;;1.27;;
20649;SDS011;10484;48.736;9.332;2023-09-18T09:07:48;2.57;;;1.43;;
20649;SDS011;10484;48.736;9.332;2023-09-18T09:10:15;2.83;;;1.40;;
20649;SDS011;10484;48.736;9.332;2023-09-18T09:12:59;1.70;;;1.40;;
20649;SDS011;10484;48.736;9.332;2023-09-18T09:15:28;3.00;;;1.40;;
20649;SDS011;10484;48.736;9.332;2023-09-18T09:18:13;1.20;;;1.10;;
20649;SDS011;10484;48.736;9.332;2023-09-18T09:20:40;1.90;;;1.10;;
20649;SDS011;10484;48.736;9.332;2023-09-18T09:23:08;2.20;;;1.40;;
20649;SDS011;10484;48.736;9.332;2023-09-18T09:25:35;2.00;;;0.97;;
20649;SDS011;10484;48.736;9.332;2023-09-18T09:28:04;3.60;;;1.53;;
20649;SDS011;10484;48.736;9.332;2023-09-18T09:30:31;1.80;;;1.10;;
20649;SDS011;10484;48.736;9.332;2023-09-18T09:32:58;2.53;;;1.17;;
20649;SDS011;10484;48.736;9.332;2023-09-18T09:35:26;1.47;;;1.10;;
20649;SDS011;10484;48.736;9.332;2023-09-18T09:37:53;1.77;;;1.23;;
20649;SDS011;10484;48.736;9.332;2023-09-18T09:40:24;1.67;;;1.23;;
20649;SDS011;10484;48.736;9.332;2023-09-18T09:42:51;2.60;;;1.50;;
20649;SDS011;10484;48.736;9.332;2023-09-18T09:45:19;1.90;;;1.13;;
20649;SDS011;10484;48.736;9.332;2023-09-18T09:47:45;1.77;;;1.00;;
20649;SDS011;10484;48.736;9.332;2023-09-18T09:50:11;2.13;;;1.27;;
20649;SDS011;10484;48.736;9.332;2023-09-18T09:52:41;1.73;;;1.07;;
20649;SDS011;10484;48.736;9.332;2023-09-18T09:55:18;1.50;;;1.20;;
20649;SDS011;10484;48.736;9.332;2023-09-18T09:57:54;2.90;;;1.27;;
20649;SDS011;10484;48.736;9.332;2023-09-18T10:00:31;2.20;;;1.10;;
20649;SDS011;10484;48.736;9.332;2023-09-18T10:03:08;2.57;;;1.27;;
20649;SDS011;10484;48.736;9.332;2023-09-18T10:05:36;1.10;;;0.77;;
20649;SDS011;10484;48.736;9.332;2023-09-18T10:08:07;3.20;;;1.20;;
20649;SDS011;10484;48.736;9.332;2023-09-18T10:10:45;1.23;;;1.00;;
20649;SDS011;10484;48.736;9.332;2023-09-18T10:13:15;3.50;;;1.30;;
20649;SDS011;10484;48.736;9.332;2023-09-18T10:15:58;3.47;;;1.00;;
20649;SDS011;10484;48.736;9.332;2023-09-18T10:18:28;3.33;;;1.20;;
20649;SDS011;10484;48.736;9.332;2023-09-18T10:21:03;2.00;;;1.00;;
20649;SDS011;10484;48.736;9.332;2023-09-18T10:23:38;1.97;;;1.13;;
20649;SDS011;10484;48.736;9.332;2023-09-18T10:26:13;1.50;;;1.40;;
20649;SDS011;10484;48.736;9.332;2023-09-18T10:28:45;2.70;;;1.27;;
20649;SDS011;10484;48.736;9.332;2023-09-18T10:31:11;1.80;;;1.30;;
20649;SDS011;10484;48.736;9.332;2023-09-18T10:33:38;2.60;;;1.60;;
20649;SDS011;10484;48.736;9.332;2023-09-18T10:36:05;1.90;;;1.33;;
20649;SDS011;10484;48.736;9.332;2023-09-18T10:38:33;1.70;;;1.27;;
20649;SDS011;10484;48.736;9.332;2023-09-18T10:40:59;1.10;;;1.00;;
20649;SDS011;10484;48.736;9.332;2023-09-18T10:43:26;2.50;;;1.13;;
20649;SDS011;10484;48.736;9.332;2023-09-18T10:45:52;1.47;;;1.00;;
20649;SDS011;10484;48.736;9.332;2023-09-18T10:48:19;2.40;;;1.20;;
20649;SDS011;10484;48.736;9.332;2023-09-18T10:50:47;2.20;;;1.17;;
20649;SDS011;10484;48.736;9.332;2023-09-18T10:53:13;1.50;;;1.40;;
20649;SDS011;10484;48.736;9.332;2023-09-18T10:55:39;1.67;;;1.13;;
20649;SDS011;10484;48.736;9.332;2023-09-18T10:58:08;3.60;;;1.30;;
20649;SDS011;10484;48.736;9.332;2023-09-18T11:00:33;2.23;;;1.23;;
20649;SDS011;10484;48.736;9.332;2023-09-18T11:05:43;1.40;;;1.27;;
20649;SDS011;10484;48.736;9.332;2023-09-18T11:13:30;3.23;;;1.13;;
20649;SDS011;10484;48.736;9.332;2023-09-18T11:16:02;1.53;;;1.23;;
20649;SDS011;10484;48.736;9.332;2023-09-18T11:18:38;2.00;;;1.40;;
20649;SDS011;10484;48.736;9.332;2023-09-18T11:21:10;1.60;;;1.27;;
20649;SDS011;10484;48.736;9.332;2023-09-18T11:23:38;1.37;;;1.27;;
20649;SDS011;10484;48.736;9.332;2023-09-18T11:26:10;1.60;;;1.13;;
20649;SDS011;10484;48.736;9.332;2023-09-18T11:28:36;1.37;;;1.27;;
20649;SDS011;10484;48.736;9.332;2023-09-18T11:31:02;2.40;;;1.37;;
20649;SDS011;10484;48.736;9.332;2023-09-18T11:33:29;1.40;;;1.30;;
20649;SDS011;10484;48.736;9.332;2023-09-18T11:35:55;2.80;;;1.50;;
20649;SDS011;10484;48.736;9.332;2023-09-18T11:38:21;2.63;;;1.63;;
20649;SDS011;10484;48.736;9.332;2023-09-18T11:40:48;1.93;;;1.50;;
20649;SDS011;10484;48.736;9.332;2023-09-18T11:43:21;2.10;;;1.37;;
20649;SDS011;10484;48.736;9.332;2023-09-18T11:46:00;5.30;;;1.27;;
20649;SDS011;10484;48.736;9.332;2023-09-18T11:48:30;2.03;;;1.50;;
20649;SDS011;10484;48.736;9.332;2023-09-18T11:50:59;2.40;;;1.27;;
20649;SDS011;10484;48.736;9.332;2023-09-18T11:53:28;1.73;;;1.60;;
20649;SDS011;10484;48.736;9.332;2023-09-18T11:55:54;2.80;;;1.77;;
20649;SDS011;10484;48.736;9.332;2023-09-18T11:58:20;2.70;;;1.63;;
20649;SDS011;10484;48.736;9.332;2023-09-18T12:00:48;3.20;;;1.40;;
20649;SDS011;10484;48.736;9.332;2023-09-18T12:03:16;1.90;;;1.37;;
20649;SDS011;10484;48.736;9.332;2023-09-18T12:05:49;4.27;;;1.20;;
20649;SDS011;10484;48.736;9.332;2023-09-18T12:08:20;3.47;;;1.70;;
20649;SDS011;10484;48.736;9.332;2023-09-18T12:10:50;4.40;;;1.60;;
20649;SDS011;10484;48.736;9.332;2023-09-18T12:13:15;1.50;;;1.40;;
20649;SDS011;10484;48.736;9.332;2023-09-18T12:15:41;2.37;;;1.40;;
20649;SDS011;10484;48.736;9.332;2023-09-18T12:18:08;2.07;;;1.13;;
20649;SDS011;10484;48.736;9.332;2023-09-18T12:20:48;4.60;;;1.40;;
20649;SDS011;10484;48.736;9.332;2023-09-18T12:23:17;1.60;;;1.27;;
20649;SDS011;10484;48.736;9.332;2023-09-18T12:25:49;1.43;;;1.00;;
20649;SDS011;10484;48.736;9.332;2023-09-18T12:28:22;1.93;;;1.33;;
20649;SDS011;10484;48.736;9.332;2023-09-18T12:30:47;1.57;;;1.37;;
20649;SDS011;10484;48.736;9.332;2023-09-18T12:33:15;1.37;;;1.20;;
20649;SDS011;10484;48.736;9.332;2023-09-18T12:35:42;3.00;;;1.97;;
20649;SDS011;10484;48.736;9.332;2023-09-18T12:38:15;4.93;;;1.40;;
20649;SDS011;10484;48.736;9.332;2023-09-18T12:40:43;2.07;;;1.17;;
20649;SDS011;10484;48.736;9.332;2023-09-18T12:43:11;2.47;;;1.13;;
20649;SDS011;10484;48.736;9.332;2023-09-18T12:45:37;3.23;;;1.10;;
20649;SDS011;10484;48.736;9.332;2023-09-18T12:48:03;1.80;;;1.17;;
20649;SDS011;10484;48.736;9.332;2023-09-18T12:50:31;1.77;;;1.47;;
20649;SDS011;10484;48.736;9.332;2023-09-18T12:53:10;1.57;;;1.27;;
20649;SDS011;10484;48.736;9.332;2023-09-18T12:55:37;1.40;;;1.30;;
20649;SDS011;10484;48.736;9.332;2023-09-18T12:58:03;2.03;;;1.00;;
20649;SDS011;10484;48.736;9.332;2023-09-18T13:00:34;1.53;;;1.00;;
20649;SDS011;10484;48.736;9.332;2023-09-18T13:03:01;1.70;;;1.10;;
20649;SDS011;10484;48.736;9.332;2023-09-18T13:05:30;1.53;;;1.33;;
20649;SDS011;10484;48.736;9.332;2023-09-18T13:08:04;0.60;;;0.60;;
20649;SDS011;10484;48.736;9.332;2023-09-18T13:13:28;2.47;;;1.37;;
20649;SDS011;10484;48.736;9.332;2023-09-18T13:15:57;1.23;;;1.00;;
20649;SDS011;10484;48.736;9.332;2023-09-18T13:18:24;1.90;;;1.00;;
20649;SDS011;10484;48.736;9.332;2023-09-18T13:20:51;2.20;;;1.10;;
20649;SDS011;10484;48.736;9.332;2023-09-18T13:23:17;1.27;;;1.00;;
20649;SDS011;10484;48.736;9.332;2023-09-18T13:25:42;1.67;;;0.97;;
20649;SDS011;10484;48.736;9.332;2023-09-18T13:28:09;1.40;;;1.27;;
20649;SDS011;10484;48.736;9.332;2023-09-18T13:30:36;1.57;;;1.27;;
20649;SDS011;10484;48.736;9.332;2023-09-18T13:33:07;1.77;;;1.00;;
20649;SDS011;10484;48.736;9.332;2023-09-18T13:35:38;1.97;;;1.30;;
20649;SDS011;10484;48.736;9.332;2023-09-18T13:38:05;2.67;;;1.13;;
20649;SDS011;10484;48.736;9.332;2023-09-18T13:40:32;1.20;;;1.10;;
20649;SDS011;10484;48.736;9.332;2023-09-18T13:43:01;1.40;;;1.20;;
20649;SDS011;10484;48.736;9.332;2023-09-18T13:45:29;1.67;;;1.03;;
20649;SDS011;10484;48.736;9.332;2023-09-18T13:47:58;2.47;;;1.20;;
20649;SDS011;10484;48.736;9.332;2023-09-18T13:50:24;1.47;;;1.37;;
20649;SDS011;10484;48.736;9.332;2023-09-18T13:52:50;2.20;;;1.43;;
20649;SDS011;10484;48.736;9.332;2023-09-18T13:55:16;1.67;;;1.53;;
20649;SDS011;10484;48.736;9.332;2023-09-18T13:57:42;1.50;;;1.30;;
20649;SDS011;10484;48.736;9.332;2023-09-18T14:00:08;1.80;;;1.27;;
20649;SDS011;10484;48.736;9.332;2023-09-18T14:02:36;1.07;;;0.97;;
20649;SDS011;10484;48.736;9.332;2023-09-18T14:05:03;2.00;;;1.40;;
20649;SDS011;10484;48.736;9.332;2023-09-18T14:07:29;1.33;;;0.97;;
20649;SDS011;10484;48.736;9.332;2023-09-18T14:09:55;1.70;;;1.50;;
20649;SDS011;10484;48.736;9.332;2023-09-18T14:12:21;1.33;;;1.17;;
20649;SDS011;10484;48.736;9.332;2023-09-18T14:14:47;2.60;;;1.30;;
20649;SDS011;10484;48.736;9.332;2023-09-18T14:17:12;2.27;;;1.63;;
20649;SDS011;10484;48.736;9.332;2023-09-18T14:19:38;1.23;;;1.00;;
20649;SDS011;10484;48.736;9.332;2023-09-18T14:22:05;1.00;;;0.90;;
20649;SDS011;10484;48.736;9.332;2023-09-18T14:24:31;2.13;;;1.40;;
20649;SDS011;10484;48.736;9.332;2023-09-18T14:26:59;2.20;;;1.20;;
20649;SDS011;10484;48.736;9.332;2023-09-18T14:29:26;1.13;;;1.03;;
20649;SDS011;10484;48.736;9.332;2023-09-18T14:31:52;1.43;;;1.30;;
20649;SDS011;10484;48.736;9.332;2023-09-18T14:34:18;1.70;;;1.30;;
20649;SDS011;10484;48.736;9.332;2023-09-18T14:36:43;1.57;;;1.07;;
20649;SDS011;10484;48.736;9.332;2023-09-18T14:39:09;1.20;;;0.93;;
20649;SDS011;10484;48.736;9.332;2023-09-18T14:41:36;1.70;;;1.13;;
20649;SDS011;10484;48.736;9.332;2023-09-18T14:44:06;1.40;;;0.80;;
20649;SDS011;10484;48.736;9.332;2023-09-18T14:46:33;1.13;;;0.93;;
20649;SDS011;10484;48.736;9.332;2023-09-18T14:48:59;1.60;;;1.23;;
20649;SDS011;10484;48.736;9.332;2023-09-18T14:51:26;1.13;;;1.03;;
20649;SDS011;10484;48.736;9.332;2023-09-18T14:53:53;1.40;;;1.03;;
20649;SDS011;10484;48.736;9.332;2023-09-18T14:56:20;1.43;;;1.33;;
20649;SDS011;10484;48.736;9.332;2023-09-18T14:58:45;1.70;;;1.40;;
20649;SDS011;10484;48.736;9.332;2023-09-18T15:01:11;1.20;;;0.93;;